createdAt,value
2022-09-22T00:01:37.214Z,5.22
2022-09-22T00:04:08.224Z,4.25
2022-09-22T00:06:39.226Z,4.72
2022-09-22T00:09:10.109Z,4.90
2022-09-22T00:11:40.632Z,2.95
2022-09-22T00:14:11.009Z,3.40
2022-09-22T00:16:42.818Z,4.47
2022-09-22T00:19:12.927Z,2.92
2022-09-22T00:21:40.955Z,11.43
2022-09-22T00:24:09.297Z,5.78
2022-09-22T00:26:39.031Z,3.50
2022-09-22T00:29:10.219Z,6.53
2022-09-22T00:31:40.952Z,5.40
2022-09-22T00:34:10.289Z,2.88
2022-09-22T00:36:38.457Z,3.65
2022-09-22T00:39:06.727Z,7.68
2022-09-22T00:41:37.304Z,3.92
2022-09-22T00:44:37.689Z,3.40
2022-09-22T00:47:16.399Z,3.85
2022-09-22T00:49:51.156Z,3.13
2022-09-22T00:52:23.909Z,6.07
2022-09-22T00:54:56.788Z,7.70
2022-09-22T00:57:28.226Z,8.27
2022-09-22T00:59:57.117Z,8.82
2022-09-22T01:02:26.806Z,4.00
2022-09-22T01:04:55.988Z,4.00
2022-09-22T01:07:27.464Z,4.63
2022-09-22T01:09:55.612Z,3.60
2022-09-22T01:12:25.878Z,6.75
2022-09-22T01:15:08.539Z,4.70
2022-09-22T01:17:48.491Z,4.65
2022-09-22T01:20:55.829Z,2.53
2022-09-22T01:24:11.868Z,2.92
2022-09-22T01:27:21.642Z,5.03
2022-09-22T01:30:11.073Z,2.90
2022-09-22T01:32:48.054Z,4.28
2022-09-22T01:35:23.265Z,3.53
2022-09-22T01:37:59.901Z,4.13
2022-09-22T01:40:34.423Z,3.85
2022-09-22T01:43:12.645Z,4.43
2022-09-22T01:45:44.508Z,5.95
2022-09-22T01:48:16.929Z,2.38
2022-09-22T01:50:50.246Z,6.82
2022-09-22T01:53:24.145Z,3.95
2022-09-22T01:55:55.428Z,5.22
2022-09-22T02:01:26.160Z,5.85
2022-09-22T02:03:58.933Z,5.72
2022-09-22T02:06:33.290Z,5.63
2022-09-22T02:09:06.958Z,5.38
2022-09-22T02:11:35.384Z,9.68
2022-09-22T02:14:05.083Z,6.82
2022-09-22T02:16:35.647Z,6.05
2022-09-22T02:19:13.283Z,6.03
2022-09-22T02:21:45.204Z,5.65
2022-09-22T02:24:28.857Z,4.97
2022-09-22T02:26:58.561Z,4.57
2022-09-22T02:29:29.875Z,3.85
2022-09-22T02:31:59.931Z,5.82
2022-09-22T02:34:28.560Z,5.22
2022-09-22T02:37:02.265Z,5.43
2022-09-22T02:39:37.766Z,4.43
2022-09-22T02:42:17.063Z,12.20
2022-09-22T02:44:49.450Z,8.15
2022-09-22T02:47:23.981Z,8.02
2022-09-22T02:49:54.396Z,5.70
2022-09-22T02:52:24.904Z,5.60
2022-09-22T02:54:54.577Z,4.68
2022-09-22T02:57:22.482Z,6.78
2022-09-22T02:59:50.918Z,4.18
2022-09-22T03:02:20.520Z,6.07
2022-09-22T03:04:48.351Z,16.17
2022-09-22T03:07:16.710Z,5.28
2022-09-22T03:09:44.900Z,7.72
2022-09-22T03:12:12.719Z,10.48
2022-09-22T03:14:40.959Z,9.60
2022-09-22T03:17:09.094Z,6.15
2022-09-22T03:19:38.182Z,5.28
2022-09-22T03:22:06.748Z,7.85
2022-09-22T03:24:35.118Z,9.95
2022-09-22T03:27:02.862Z,6.93
2022-09-22T03:29:31.079Z,8.15
2022-09-22T03:31:59.389Z,8.40
2022-09-22T03:34:27.222Z,6.93
2022-09-22T03:36:56.901Z,6.05
2022-09-22T03:39:25.218Z,9.55
2022-09-22T03:41:52.969Z,7.25
2022-09-22T03:44:21.173Z,11.13
2022-09-22T03:46:49.585Z,7.90
2022-09-22T03:49:17.317Z,10.35
2022-09-22T03:51:45.774Z,10.00
2022-09-22T03:54:14.964Z,10.20
2022-09-22T03:56:42.734Z,9.07
2022-09-22T03:59:11.929Z,10.13
2022-09-22T04:01:40.237Z,10.45
2022-09-22T04:04:08.365Z,9.25
2022-09-22T04:06:39.155Z,8.93
2022-09-22T04:09:07.814Z,15.30
2022-09-22T04:11:37.541Z,12.10
2022-09-22T04:14:05.831Z,8.80
2022-09-22T04:16:33.670Z,8.10
2022-09-22T04:19:05.408Z,10.98
2022-09-22T04:21:33.850Z,9.70
2022-09-22T04:24:01.932Z,14.73
2022-09-22T04:26:30.565Z,8.43
2022-09-22T04:29:00.387Z,8.98
2022-09-22T04:31:28.228Z,11.23
2022-09-22T04:33:56.551Z,12.77
2022-09-22T04:36:24.864Z,11.20
2022-09-22T04:38:52.670Z,11.45
2022-09-22T04:41:21.069Z,8.55
2022-09-22T04:43:49.224Z,10.45
2022-09-22T04:46:18.599Z,12.50
2022-09-22T04:48:46.817Z,11.63
2022-09-22T04:51:15.304Z,10.80
2022-09-22T04:53:43.491Z,9.65
2022-09-22T04:56:11.857Z,16.25
2022-09-22T04:58:40.180Z,10.15
2022-09-22T05:01:08.330Z,9.48
2022-09-22T05:03:39.503Z,11.93
2022-09-22T05:06:08.698Z,9.05
2022-09-22T05:08:36.509Z,10.45
2022-09-22T05:11:07.222Z,8.20
2022-09-22T05:13:35.793Z,8.07
2022-09-22T05:16:05.534Z,10.25
2022-09-22T05:18:33.883Z,9.13
2022-09-22T05:21:03.893Z,14.40
2022-09-22T05:23:32.244Z,13.85
2022-09-22T05:26:00.486Z,10.88
2022-09-22T05:28:28.786Z,10.60
2022-09-22T05:30:56.557Z,11.18
2022-09-22T05:33:24.709Z,9.93
2022-09-22T05:35:52.844Z,13.00
2022-09-22T05:38:22.036Z,11.68
2022-09-22T05:40:50.280Z,11.23
2022-09-22T05:43:18.469Z,16.50
2022-09-22T05:45:46.247Z,12.45
2022-09-22T05:48:14.652Z,16.20
2022-09-22T05:50:42.687Z,12.30
2022-09-22T05:53:11.289Z,13.48
2022-09-22T05:55:42.021Z,14.70
2022-09-22T05:58:12.228Z,18.65
2022-09-22T06:00:41.540Z,10.57
2022-09-22T06:03:10.313Z,13.70
2022-09-22T06:05:39.487Z,13.43
2022-09-22T06:08:08.431Z,13.82
2022-09-22T06:10:38.736Z,11.80
2022-09-22T06:13:10.825Z,11.80
2022-09-22T06:15:39.792Z,13.90
2022-09-22T06:18:14.932Z,13.68
2022-09-22T06:20:44.288Z,11.32
2022-09-22T06:23:15.922Z,13.95
2022-09-22T06:25:44.539Z,17.02
2022-09-22T06:28:15.871Z,13.35
2022-09-22T06:30:43.991Z,15.38
2022-09-22T06:33:12.606Z,10.32
2022-09-22T06:35:43.369Z,11.15
2022-09-22T06:38:15.172Z,13.25
2022-09-22T06:40:43.827Z,16.58
2022-09-22T06:43:20.735Z,12.93
2022-09-22T06:45:49.097Z,20.00
2022-09-22T06:48:16.907Z,16.88
2022-09-22T06:50:49.744Z,14.70
2022-09-22T06:53:19.041Z,14.68
2022-09-22T06:55:47.146Z,20.42
2022-09-22T06:58:17.470Z,22.20
2022-09-22T07:00:45.383Z,22.90
2022-09-22T07:03:20.029Z,18.75
2022-09-22T07:05:55.626Z,21.53
2022-09-22T07:08:24.568Z,18.65
2022-09-22T07:10:56.768Z,32.65
2022-09-22T07:13:30.044Z,28.00
2022-09-22T07:16:01.305Z,16.35
2022-09-22T07:18:29.336Z,18.10
2022-09-22T07:21:03.635Z,16.35
2022-09-22T07:23:31.451Z,13.23
2022-09-22T07:26:00.894Z,12.60
2022-09-22T07:28:30.458Z,11.18
2022-09-22T07:31:06.209Z,10.48
2022-09-22T07:33:34.749Z,12.73
2022-09-22T07:36:05.669Z,8.88
2022-09-22T07:38:33.990Z,15.57
2022-09-22T07:41:02.622Z,10.82
2022-09-22T07:43:35.157Z,6.72
2022-09-22T07:46:03.851Z,4.80
2022-09-22T07:48:37.682Z,5.28
2022-09-22T07:51:06.843Z,7.57
2022-09-22T07:53:34.740Z,4.82
2022-09-22T07:56:07.469Z,5.78
2022-09-22T07:58:36.613Z,8.77
2022-09-22T08:01:09.341Z,6.38
2022-09-22T08:03:38.103Z,6.72
2022-09-22T08:06:10.512Z,5.93
2022-09-22T08:08:42.670Z,5.50
2022-09-22T08:11:13.820Z,8.20
2022-09-22T08:13:44.317Z,4.68
2022-09-22T08:16:12.138Z,3.97
2022-09-22T08:18:41.023Z,3.63
2022-09-22T08:21:08.930Z,4.50
2022-09-22T08:23:37.944Z,5.50
2022-09-22T08:26:09.357Z,6.20
2022-09-22T08:28:37.127Z,6.45
2022-09-22T08:31:13.436Z,5.28
2022-09-22T08:33:42.344Z,5.25
2022-09-22T08:36:10.505Z,8.90
2022-09-22T08:38:39.134Z,8.10
2022-09-22T08:41:17.509Z,17.23
2022-09-22T08:43:50.485Z,13.13
2022-09-22T08:46:20.051Z,8.27
2022-09-22T08:49:07.647Z,3.03
2022-09-22T08:51:55.520Z,9.93
2022-09-22T08:54:29.455Z,6.65
2022-09-22T08:57:21.687Z,3.72
2022-09-22T08:59:55.700Z,4.00
2022-09-22T09:02:35.409Z,2.83
2022-09-22T09:05:46.538Z,6.18
2022-09-22T09:08:50.919Z,6.20
2022-09-22T09:11:32.121Z,6.15
2022-09-22T09:14:16.947Z,4.10
2022-09-22T09:16:48.937Z,1.65
2022-09-22T09:19:21.641Z,6.75
2022-09-22T09:21:52.667Z,6.68
2022-09-22T09:27:21.274Z,4.63
2022-09-22T09:29:59.935Z,4.18
2022-09-22T09:32:34.525Z,4.30
2022-09-22T09:37:33.413Z,2.60
2022-09-22T09:40:04.890Z,2.70
2022-09-22T09:42:36.800Z,4.05
2022-09-22T09:45:07.728Z,3.47
2022-09-22T09:48:01.609Z,3.72
2022-09-22T09:50:32.662Z,3.22
2022-09-22T09:53:00.994Z,4.47
2022-09-22T09:55:29.041Z,4.97
2022-09-22T09:58:11.178Z,4.90
2022-09-22T10:00:55.967Z,2.85
2022-09-22T10:03:30.532Z,4.13
2022-09-22T10:06:03.365Z,1.52
2022-09-22T10:08:36.474Z,2.38
2022-09-22T10:11:05.561Z,2.72
2022-09-22T10:13:36.121Z,2.70
2022-09-22T10:16:20.886Z,3.75
2022-09-22T10:18:49.898Z,3.40
2022-09-22T10:21:21.121Z,6.32
2022-09-22T10:23:50.200Z,1.83
2022-09-22T10:26:21.857Z,4.68
2022-09-22T10:29:14.194Z,4.68
2022-09-22T10:31:43.092Z,2.10
2022-09-22T10:34:31.270Z,2.47
2022-09-22T10:37:01.971Z,2.33
2022-09-22T10:39:40.121Z,2.55
2022-09-22T10:42:20.034Z,3.50
2022-09-22T10:44:49.053Z,2.50
2022-09-22T10:47:31.589Z,2.17
2022-09-22T10:50:28.952Z,1.45
2022-09-22T10:53:08.136Z,2.45
2022-09-22T10:55:42.710Z,1.33
2022-09-22T10:58:27.534Z,2.40
2022-09-22T11:01:11.463Z,3.55
2022-09-22T11:04:27.172Z,1.45
2022-09-22T11:07:37.867Z,0.98
2022-09-22T11:10:38.155Z,3.28
2022-09-22T11:13:21.045Z,3.45
2022-09-22T11:16:13.689Z,3.67
2022-09-22T11:19:01.220Z,1.63
2022-09-22T11:21:44.971Z,3.03
2022-09-22T11:24:25.396Z,4.03
2022-09-22T11:26:57.809Z,2.03
2022-09-22T11:29:57.424Z,5.95
2022-09-22T11:32:47.996Z,2.47
2022-09-22T11:35:48.765Z,2.20
2022-09-22T11:38:29.204Z,2.72
2022-09-22T11:41:18.916Z,1.27
2022-09-22T11:44:15.321Z,2.88
2022-09-22T11:47:01.028Z,1.40
2022-09-22T11:49:45.887Z,1.33
2022-09-22T11:52:27.793Z,1.07
2022-09-22T11:55:19.193Z,1.42
2022-09-22T11:57:50.734Z,3.72
2022-09-22T12:00:22.515Z,1.25
2022-09-22T12:03:02.072Z,1.95
2022-09-22T12:05:35.749Z,2.03
2022-09-22T12:08:07.405Z,3.85
2022-09-22T12:10:38.510Z,2.08
2022-09-22T12:13:12.001Z,2.35
2022-09-22T12:15:49.048Z,2.83
2022-09-22T12:18:24.211Z,0.93
2022-09-22T12:21:00.906Z,0.88
2022-09-22T12:23:40.911Z,1.15
2022-09-22T12:26:12.581Z,2.85
2022-09-22T12:28:43.185Z,1.13
2022-09-22T12:31:15.753Z,1.75
2022-09-22T12:33:49.871Z,2.95
2022-09-22T12:36:20.458Z,2.40
2022-09-22T12:38:48.337Z,1.77
2022-09-22T12:41:21.757Z,1.10
2022-09-22T12:43:49.529Z,2.03
2022-09-22T12:46:28.358Z,3.38
2022-09-22T12:48:56.244Z,1.05
2022-09-22T12:51:35.025Z,2.42
2022-09-22T12:54:47.415Z,2.08
2022-09-22T12:57:48.954Z,0.75
2022-09-22T13:00:32.277Z,1.77
2022-09-22T13:03:49.741Z,1.58
2022-09-22T13:06:50.790Z,1.15
2022-09-22T13:09:22.660Z,1.85
2022-09-22T13:12:28.510Z,1.20
2022-09-22T13:15:23.779Z,1.55
2022-09-22T13:17:52.179Z,2.33
2022-09-22T13:20:31.051Z,2.63
2022-09-22T13:23:05.801Z,1.73
2022-09-22T13:25:34.346Z,2.47
2022-09-22T13:28:11.608Z,1.35
2022-09-22T13:30:41.952Z,5.72
2022-09-22T13:33:20.121Z,1.63
2022-09-22T13:35:58.333Z,2.13
2022-09-22T13:38:26.469Z,2.25
2022-09-22T13:40:55.187Z,1.80
2022-09-22T13:43:28.858Z,2.25
2022-09-22T13:45:59.586Z,1.55
2022-09-22T13:48:31.226Z,1.27
2022-09-22T13:51:04.452Z,3.88
2022-09-22T13:53:33.233Z,1.80
2022-09-22T13:56:01.131Z,1.98
2022-09-22T13:58:36.925Z,2.33
2022-09-22T14:01:14.176Z,1.55
2022-09-22T14:03:43.117Z,3.28
2022-09-22T14:06:16.324Z,1.70
2022-09-22T14:08:46.000Z,1.85
2022-09-22T14:11:16.217Z,1.08
2022-09-22T14:13:57.853Z,2.70
2022-09-22T14:16:29.573Z,2.08
2022-09-22T14:19:03.278Z,1.77
2022-09-22T14:21:33.380Z,3.17
2022-09-22T14:24:02.134Z,2.67
2022-09-22T14:26:35.996Z,1.42
2022-09-22T14:29:18.672Z,1.45
2022-09-22T14:31:50.708Z,3.40
2022-09-22T14:34:24.401Z,1.20
2022-09-22T14:36:55.213Z,1.23
2022-09-22T14:39:31.425Z,4.90
2022-09-22T14:42:07.329Z,2.72
2022-09-22T14:44:41.160Z,2.22
2022-09-22T14:47:11.460Z,3.95
2022-09-22T14:49:42.054Z,1.42
2022-09-22T14:52:22.493Z,2.40
2022-09-22T14:54:51.111Z,1.30
2022-09-22T14:57:19.097Z,3.70
2022-09-22T15:00:11.377Z,2.30
2022-09-22T15:02:41.691Z,2.05
2022-09-22T15:05:11.984Z,1.15
2022-09-22T15:07:49.171Z,1.33
2022-09-22T15:10:27.057Z,1.98
2022-09-22T15:12:56.576Z,3.08
2022-09-22T15:15:26.662Z,1.95
2022-09-22T15:18:16.318Z,0.95
2022-09-22T15:20:47.704Z,2.05
2022-09-22T15:23:23.075Z,1.15
2022-09-22T15:28:23.008Z,1.40
2022-09-22T15:30:52.900Z,1.67
2022-09-22T15:33:21.914Z,1.13
2022-09-22T15:35:53.940Z,2.05
2022-09-22T15:38:26.844Z,4.85
2022-09-22T15:40:55.709Z,1.73
2022-09-22T15:43:29.220Z,2.22
2022-09-22T15:46:01.393Z,1.80
2022-09-22T15:48:32.272Z,1.10
2022-09-22T15:51:04.711Z,1.45
2022-09-22T15:53:35.399Z,1.63
2022-09-22T15:56:06.515Z,1.13
2022-09-22T15:58:36.436Z,1.65
2022-09-22T16:01:05.582Z,1.27
2022-09-22T16:03:37.946Z,1.15
2022-09-22T16:06:13.063Z,1.70
2022-09-22T16:08:46.598Z,1.25
2022-09-22T16:11:16.754Z,0.70
2022-09-22T16:13:44.549Z,0.73
2022-09-22T16:16:12.705Z,3.72
2022-09-22T16:18:42.229Z,1.42
2022-09-22T16:21:20.723Z,2.45
2022-09-22T16:23:50.448Z,4.25
2022-09-22T16:26:18.149Z,3.03
2022-09-22T16:28:45.843Z,2.10
2022-09-22T16:31:14.740Z,3.30
2022-09-22T16:33:43.881Z,3.47
2022-09-22T16:36:12.232Z,0.80
2022-09-22T16:38:39.949Z,2.70
2022-09-22T16:41:20.099Z,3.67
2022-09-22T16:43:47.956Z,2.53
2022-09-22T16:46:28.305Z,1.73
2022-09-22T16:48:58.879Z,2.53
2022-09-22T16:51:27.375Z,1.98
2022-09-22T16:53:55.167Z,4.55
2022-09-22T16:56:26.311Z,4.45
2022-09-22T16:58:55.463Z,2.75
2022-09-22T17:01:23.784Z,1.55
2022-09-22T17:03:53.371Z,0.98
2022-09-22T17:06:25.290Z,3.08
2022-09-22T17:08:54.228Z,1.88
2022-09-22T17:11:29.446Z,5.53
2022-09-22T17:14:00.028Z,2.97
2022-09-22T17:16:29.933Z,2.53
2022-09-22T17:18:59.620Z,6.28
2022-09-22T17:21:32.288Z,6.95
2022-09-22T17:24:01.865Z,2.72
2022-09-22T17:26:33.502Z,2.92
2022-09-22T17:29:01.780Z,4.93
2022-09-22T17:31:31.204Z,4.63
2022-09-22T17:34:00.099Z,2.72
2022-09-22T17:36:29.473Z,2.83
2022-09-22T17:38:59.115Z,5.03
2022-09-22T17:41:28.833Z,7.07
2022-09-22T17:44:00.966Z,3.55
2022-09-22T17:46:31.406Z,3.67
2022-09-22T17:49:16.997Z,2.60
2022-09-22T17:52:04.285Z,2.95
2022-09-22T17:54:51.323Z,4.65
2022-09-22T17:57:22.122Z,4.60
2022-09-22T17:59:51.926Z,2.22
2022-09-22T18:02:21.264Z,4.68
2022-09-22T18:04:49.712Z,3.83
2022-09-22T18:07:19.543Z,3.97
2022-09-22T18:09:50.006Z,1.40
2022-09-22T18:12:21.444Z,7.60
2022-09-22T18:14:52.602Z,2.17
2022-09-22T18:17:22.017Z,2.85
2022-09-22T18:19:49.810Z,2.83
2022-09-22T18:22:21.486Z,3.88
2022-09-22T18:24:50.579Z,4.68
2022-09-22T18:27:20.666Z,3.17
2022-09-22T18:29:50.354Z,3.92
2022-09-22T18:32:20.226Z,3.58
2022-09-22T18:34:53.471Z,4.68
2022-09-22T18:37:21.685Z,4.68
2022-09-22T18:39:50.498Z,4.78
2022-09-22T18:42:19.543Z,4.22
2022-09-22T18:44:47.967Z,2.97
2022-09-22T18:47:18.858Z,6.88
2022-09-22T18:49:51.241Z,4.43
2022-09-22T18:52:23.453Z,7.05
2022-09-22T18:54:53.110Z,3.70
2022-09-22T18:57:21.730Z,8.70
2022-09-22T18:59:51.514Z,4.68
2022-09-22T19:02:22.625Z,7.13
2022-09-22T19:04:52.755Z,9.80
2022-09-22T19:07:42.503Z,2.92
2022-09-22T19:10:12.777Z,11.55
2022-09-22T19:12:41.008Z,3.40
2022-09-22T19:15:14.059Z,4.00
2022-09-22T19:17:44.431Z,2.83
2022-09-22T19:20:17.724Z,2.97
2022-09-22T19:22:47.016Z,4.13
2022-09-22T19:25:15.427Z,4.80
2022-09-22T19:27:44.014Z,2.95
2022-09-22T19:30:13.042Z,1.75
2022-09-22T19:32:41.690Z,2.97
2022-09-22T19:35:11.023Z,5.65
2022-09-22T19:37:41.255Z,3.45
2022-09-22T19:40:13.098Z,2.20
2022-09-22T19:42:41.051Z,4.40
2022-09-22T19:45:09.510Z,2.15
2022-09-22T19:47:38.589Z,4.03
2022-09-22T19:50:08.601Z,4.28
2022-09-22T19:52:36.789Z,3.92
2022-09-22T19:55:07.065Z,6.53
2022-09-22T19:57:41.399Z,4.00
2022-09-22T20:00:10.980Z,7.97
2022-09-22T20:02:38.796Z,8.15
2022-09-22T20:05:18.385Z,9.40
2022-09-22T20:07:46.124Z,5.40
2022-09-22T20:10:17.127Z,3.33
2022-09-22T20:12:45.374Z,5.15
2022-09-22T20:15:15.808Z,4.93
2022-09-22T20:17:46.261Z,5.63
2022-09-22T20:20:15.499Z,6.72
2022-09-22T20:22:43.608Z,7.00
2022-09-22T20:25:23.005Z,7.65
2022-09-22T20:27:50.805Z,4.60
2022-09-22T20:30:19.287Z,5.72
2022-09-22T20:32:47.989Z,3.50
2022-09-22T20:35:18.991Z,5.65
2022-09-22T20:37:47.257Z,4.15
2022-09-22T20:40:20.451Z,6.25
2022-09-22T20:42:49.817Z,4.25
2022-09-22T20:45:18.659Z,5.95
2022-09-22T20:47:46.416Z,4.32
2022-09-22T20:50:14.788Z,7.88
2022-09-22T20:52:43.513Z,4.82
2022-09-22T20:55:12.131Z,5.07
2022-09-22T20:57:41.271Z,7.03
2022-09-22T21:00:10.356Z,3.17
2022-09-22T21:02:39.349Z,7.80
2022-09-22T21:05:07.504Z,5.38
2022-09-22T21:07:35.246Z,4.18
2022-09-22T21:10:20.780Z,3.58
2022-09-22T21:12:50.721Z,2.58
2022-09-22T21:15:20.304Z,8.00
2022-09-22T21:17:48.592Z,2.90
2022-09-22T21:20:16.492Z,3.97
2022-09-22T21:22:44.930Z,5.90
2022-09-22T21:25:12.914Z,4.90
2022-09-22T21:27:40.864Z,2.45
2022-09-22T21:30:11.421Z,5.05
2022-09-22T21:32:39.410Z,6.65
2022-09-22T21:35:08.619Z,1.60
2022-09-22T21:37:36.341Z,7.68
2022-09-22T21:40:04.357Z,3.25
2022-09-22T21:42:32.428Z,4.07
2022-09-22T21:45:01.300Z,4.88
2022-09-22T21:47:31.271Z,7.20
2022-09-22T21:49:59.577Z,4.55
2022-09-22T21:52:27.332Z,3.05
2022-09-22T21:54:56.631Z,5.28
2022-09-22T21:57:24.417Z,7.82
2022-09-22T21:59:54.911Z,9.43
2022-09-22T22:02:24.479Z,4.35
2022-09-22T22:04:55.678Z,3.72
2022-09-22T22:07:23.455Z,2.80
2022-09-22T22:09:51.201Z,4.13
2022-09-22T22:12:19.311Z,5.68
2022-09-22T22:14:47.145Z,5.57
2022-09-22T22:17:15.121Z,8.82
2022-09-22T22:19:42.857Z,5.78
2022-09-22T22:22:11.990Z,7.35
2022-09-22T22:24:42.850Z,3.63
2022-09-22T22:27:11.811Z,5.05
2022-09-22T22:29:39.784Z,4.60
2022-09-22T22:32:10.860Z,5.78
2022-09-22T22:34:39.136Z,4.55
2022-09-22T22:37:09.623Z,6.40
2022-09-22T22:39:39.359Z,4.75
2022-09-22T22:42:07.970Z,5.65
2022-09-22T22:44:35.986Z,2.55
2022-09-22T22:47:04.100Z,4.38
2022-09-22T22:49:32.490Z,6.43
2022-09-22T22:52:00.671Z,3.60
2022-09-22T22:54:28.386Z,7.90
2022-09-22T22:56:57.719Z,4.05
2022-09-22T22:59:25.453Z,5.68
2022-09-22T23:01:53.660Z,5.72
2022-09-22T23:04:22.090Z,5.63
2022-09-22T23:06:49.844Z,4.88
2022-09-22T23:09:18.345Z,4.72
2022-09-22T23:11:46.788Z,6.35
2022-09-22T23:14:16.380Z,4.10
2022-09-22T23:16:46.988Z,6.43
2022-09-22T23:19:17.056Z,9.93
2022-09-22T23:21:46.622Z,6.97
2022-09-22T23:24:16.315Z,3.90
2022-09-22T23:26:46.753Z,7.28
2022-09-22T23:29:16.134Z,7.20
2022-09-22T23:31:43.900Z,13.98
2022-09-22T23:34:12.041Z,6.07
2022-09-22T23:36:40.575Z,6.05
2022-09-22T23:39:08.833Z,5.65
2022-09-22T23:41:37.828Z,5.93
2022-09-22T23:44:06.718Z,6.78
2022-09-22T23:46:37.890Z,4.05
2022-09-22T23:49:06.610Z,5.40
2022-09-22T23:51:34.679Z,7.20
2022-09-22T23:54:02.497Z,7.55
2022-09-22T23:56:30.288Z,7.55
2022-09-22T23:58:58.439Z,10.23
